Tinmouth, Vermont
Current Conditions -  °F | °C
As of 9:15 AM on Sunday 25 Jan 2015 (Local Time) from KRUT Reporting Station
Overcast Overcast  
Wind Chill: 12°   Ceiling: 3400
Heat Index: 25°   Visibility: 10mi
Dew Point: 10°   Wind: 16mph
Humidity: 54%   Direction: 290°WNW
Pressure: 29.58"   Gusts: 25mph
Location:  43.4377°N, 73.0014°W
Report Text: KRUT 251415Z 29014G22KT 10SM OVC034 M04/M12 A2958 RMK AO1
Loading
Personal Weather Stations






























Interactive Weather Map New forecast layout! Learn more

10-Day Weather Forecast

Advertisements
Track Severe Weather on mobile